createdAt,value
2019-05-06T00:01:53.976Z,2.17
2019-05-06T00:04:20.434Z,2.15
2019-05-06T00:06:46.758Z,2.14
2019-05-06T00:09:14.693Z,2.15
2019-05-06T00:11:41.131Z,2.16
2019-05-06T00:14:07.455Z,2.16
2019-05-06T00:16:34.692Z,2.14
2019-05-06T00:19:01.244Z,2.06
2019-05-06T00:21:27.350Z,2.00
2019-05-06T00:23:54.581Z,1.92
2019-05-06T00:26:24.356Z,1.84
2019-05-06T00:28:55.496Z,1.79
2019-05-06T00:31:24.040Z,1.75
2019-05-06T00:33:50.631Z,1.67
2019-05-06T00:36:18.016Z,1.59
2019-05-06T00:38:46.127Z,1.54
2019-05-06T00:41:14.463Z,1.47
2019-05-06T00:43:40.672Z,1.48
2019-05-06T00:46:06.850Z,1.50
2019-05-06T00:48:34.086Z,1.53
2019-05-06T00:51:01.768Z,1.51
2019-05-06T00:53:29.778Z,1.47
2019-05-06T00:55:55.984Z,1.43
2019-05-06T00:58:23.785Z,1.37
2019-05-06T01:00:50.584Z,1.29
2019-05-06T01:03:16.853Z,1.26
2019-05-06T01:05:44.405Z,1.26
2019-05-06T01:08:10.921Z,1.24
2019-05-06T01:10:37.141Z,1.23
2019-05-06T01:13:08.089Z,1.22
2019-05-06T01:15:34.472Z,1.22
2019-05-06T01:18:00.680Z,1.26
2019-05-06T01:20:27.071Z,1.22
2019-05-06T01:22:54.403Z,1.17
2019-05-06T01:25:20.764Z,1.16
2019-05-06T01:27:47.023Z,1.16
2019-05-06T01:30:14.320Z,1.22
2019-05-06T01:32:40.625Z,1.29
2019-05-06T01:35:07.173Z,1.38
2019-05-06T01:37:34.733Z,1.44
2019-05-06T01:40:14.581Z,1.47
2019-05-06T01:42:44.624Z,1.48
2019-05-06T01:45:11.037Z,1.50
2019-05-06T01:47:37.195Z,1.53
2019-05-06T01:50:04.711Z,1.58
2019-05-06T01:52:30.834Z,1.70
2019-05-06T01:54:57.062Z,1.77
2019-05-06T01:57:24.440Z,1.83
2019-05-06T01:59:50.944Z,1.89
2019-05-06T02:02:17.309Z,1.89
2019-05-06T02:04:44.419Z,1.93
2019-05-06T02:07:10.671Z,1.95
2019-05-06T02:09:36.890Z,1.98
2019-05-06T02:12:04.588Z,1.96
2019-05-06T02:14:31.077Z,1.93
2019-05-06T02:16:57.307Z,1.91
2019-05-06T02:19:24.179Z,1.92
2019-05-06T02:21:55.661Z,1.89
2019-05-06T02:24:27.793Z,1.90
2019-05-06T02:26:54.408Z,1.92
2019-05-06T02:29:25.275Z,1.96
2019-05-06T02:31:56.688Z,1.99
2019-05-06T02:34:38.237Z,2.04
2019-05-06T02:37:09.321Z,2.10
2019-05-06T02:39:35.536Z,2.15
2019-05-06T02:42:04.037Z,2.23
2019-05-06T02:44:33.385Z,2.26
2019-05-06T02:47:03.572Z,2.29
2019-05-06T02:49:46.615Z,2.28
2019-05-06T02:52:14.072Z,2.31
2019-05-06T02:54:42.682Z,2.34
2019-05-06T02:57:08.481Z,2.42
2019-05-06T02:59:34.699Z,2.47
2019-05-06T03:02:03.324Z,2.54
2019-05-06T03:04:28.936Z,2.57
2019-05-06T03:06:55.121Z,2.62
2019-05-06T03:09:23.296Z,2.62
2019-05-06T03:11:49.610Z,2.65
2019-05-06T03:14:15.851Z,2.66
2019-05-06T03:16:43.944Z,2.67
2019-05-06T03:19:13.037Z,2.70
2019-05-06T03:21:55.370Z,2.69
2019-05-06T03:24:26.150Z,2.72
2019-05-06T03:26:56.856Z,2.78
2019-05-06T03:29:25.015Z,2.80
2019-05-06T03:31:55.693Z,2.82
2019-05-06T03:34:43.002Z,2.83
2019-05-06T03:36:48.846Z,2.85
2019-05-06T03:39:15.073Z,2.86
2019-05-06T03:41:43.691Z,2.89
2019-05-06T03:44:09.704Z,2.89
2019-05-06T03:46:54.412Z,2.85
2019-05-06T03:49:23.760Z,2.81
2019-05-06T03:51:55.948Z,2.72
2019-05-06T03:54:19.331Z,2.68
2019-05-06T03:56:46.872Z,2.69
2019-05-06T03:59:13.823Z,2.70
2019-05-06T04:01:42.712Z,2.69
2019-05-06T04:04:08.077Z,2.68
2019-05-06T04:06:34.622Z,2.71
2019-05-06T04:09:03.564Z,2.71
2019-05-06T04:11:35.930Z,2.70
2019-05-06T04:14:02.544Z,2.71
2019-05-06T04:16:38.837Z,2.72
2019-05-06T04:19:06.957Z,2.73
2019-05-06T04:21:43.687Z,2.74
2019-05-06T04:24:14.272Z,2.77
2019-05-06T04:26:46.006Z,2.83
2019-05-06T04:29:13.079Z,2.87
2019-05-06T04:31:38.875Z,2.88
2019-05-06T04:34:12.751Z,2.92
2019-05-06T04:36:33.873Z,2.93
2019-05-06T04:39:03.898Z,2.97
2019-05-06T04:41:29.986Z,2.97
2019-05-06T04:43:56.310Z,2.96
2019-05-06T04:46:23.617Z,2.98
2019-05-06T04:48:50.226Z,3.03
2019-05-06T04:51:16.516Z,3.02
2019-05-06T04:53:44.115Z,3.05
2019-05-06T04:56:14.391Z,3.08
2019-05-06T04:58:42.737Z,3.11
2019-05-06T05:01:12.122Z,3.15
2019-05-06T05:03:37.413Z,3.22
2019-05-06T05:06:05.773Z,3.29
2019-05-06T05:08:38.313Z,3.35
2019-05-06T05:11:18.996Z,3.41
2019-05-06T05:13:56.106Z,3.44
2019-05-06T05:16:24.380Z,3.48
2019-05-06T05:18:53.013Z,3.54
2019-05-06T05:21:19.583Z,3.56
2019-05-06T05:23:45.898Z,3.55
2019-05-06T05:26:12.339Z,3.53
2019-05-06T05:28:38.658Z,3.53
2019-05-06T05:31:04.901Z,3.53
2019-05-06T05:33:32.775Z,3.48
2019-05-06T05:35:59.449Z,3.43
2019-05-06T05:38:25.621Z,3.34
2019-05-06T05:40:52.391Z,3.33
2019-05-06T05:43:23.856Z,3.30
2019-05-06T05:45:52.199Z,3.38
2019-05-06T05:48:36.838Z,3.49
2019-05-06T05:51:03.434Z,3.62
2019-05-06T05:53:29.730Z,3.81
2019-05-06T05:55:55.926Z,3.93
2019-05-06T05:58:24.819Z,4.00
2019-05-06T06:00:52.091Z,3.94
2019-05-06T06:03:18.782Z,3.92
2019-05-06T06:05:45.055Z,3.93
2019-05-06T06:08:12.963Z,3.92
2019-05-06T06:10:42.602Z,3.89
2019-05-06T06:13:10.070Z,3.91
2019-05-06T06:15:44.146Z,3.92
2019-05-06T06:18:15.044Z,3.97
2019-05-06T06:20:49.884Z,4.09
2019-05-06T06:23:18.244Z,4.21
2019-05-06T06:25:44.517Z,4.38
2019-05-06T06:28:11.968Z,4.53
2019-05-06T06:30:42.303Z,4.65
2019-05-06T06:33:08.571Z,4.82
2019-05-06T06:35:39.834Z,4.87
2019-05-06T06:38:07.981Z,4.92
2019-05-06T06:40:34.259Z,5.01
2019-05-06T06:43:02.378Z,5.07
2019-05-06T06:45:28.489Z,5.10
2019-05-06T06:47:54.910Z,5.06
2019-05-06T06:50:22.088Z,5.07
2019-05-06T06:52:48.454Z,5.11
2019-05-06T06:55:14.668Z,5.17
2019-05-06T06:57:51.923Z,5.36
2019-05-06T07:00:23.487Z,5.49
2019-05-06T07:03:06.950Z,5.51
2019-05-06T07:05:38.241Z,5.52
2019-05-06T07:08:04.710Z,5.32
2019-05-06T07:10:43.200Z,5.28
2019-05-06T07:13:12.137Z,5.28
2019-05-06T07:15:38.637Z,5.53
2019-05-06T07:18:05.018Z,5.75
2019-05-06T07:20:33.173Z,5.94
2019-05-06T07:23:01.921Z,6.03
2019-05-06T07:25:28.737Z,5.94
2019-05-06T07:27:55.108Z,5.94
2019-05-06T07:30:23.213Z,6.06
2019-05-06T07:32:49.515Z,6.22
2019-05-06T07:35:15.785Z,6.44
2019-05-06T07:37:42.451Z,6.72
2019-05-06T07:40:09.404Z,6.82
2019-05-06T07:42:37.552Z,6.71
2019-05-06T07:45:22.888Z,6.57
2019-05-06T07:47:53.676Z,6.40
2019-05-06T07:50:19.795Z,6.18
2019-05-06T07:53:04.580Z,6.10
2019-05-06T07:55:32.773Z,6.29
2019-05-06T07:57:59.086Z,6.54
2019-05-06T08:00:25.850Z,6.64
2019-05-06T08:02:52.457Z,6.94
2019-05-06T08:05:18.774Z,7.16
2019-05-06T08:07:44.887Z,7.08
2019-05-06T08:10:13.427Z,6.85
2019-05-06T08:12:39.481Z,6.69
2019-05-06T08:15:06.169Z,6.62
2019-05-06T08:17:35.294Z,6.62
2019-05-06T08:20:02.498Z,6.72
2019-05-06T08:22:48.320Z,7.09
2019-05-06T08:25:15.317Z,7.46
2019-05-06T08:27:42.619Z,7.55
2019-05-06T08:30:09.743Z,7.67
2019-05-06T08:32:36.017Z,7.71
2019-05-06T08:35:05.542Z,7.62
2019-05-06T08:37:34.282Z,7.60
2019-05-06T08:40:03.168Z,7.71
2019-05-06T08:42:29.232Z,7.91
2019-05-06T08:44:55.460Z,8.03
2019-05-06T08:47:22.354Z,8.01
2019-05-06T08:50:08.926Z,8.01
2019-05-06T08:52:46.164Z,8.10
2019-05-06T08:55:14.187Z,8.03
2019-05-06T08:57:42.054Z,8.13
2019-05-06T09:00:08.603Z,8.23
2019-05-06T09:02:35.035Z,8.26
2019-05-06T09:05:02.918Z,8.25
2019-05-06T09:07:29.312Z,8.04
2019-05-06T09:09:55.475Z,7.81
2019-05-06T09:12:22.378Z,7.60
2019-05-06T09:14:48.801Z,7.37
2019-05-06T09:17:15.020Z,7.13
2019-05-06T09:19:42.692Z,7.09
2019-05-06T09:22:08.988Z,7.22
2019-05-06T09:24:35.221Z,7.39
2019-05-06T09:27:03.289Z,7.43
2019-05-06T09:29:42.735Z,7.54
2019-05-06T09:32:19.089Z,7.73
2019-05-06T09:34:47.356Z,7.90
2019-05-06T09:37:14.525Z,7.94
2019-05-06T09:39:43.030Z,8.10
2019-05-06T09:42:09.684Z,8.22
2019-05-06T09:44:36.074Z,8.43
2019-05-06T09:47:02.683Z,8.62
2019-05-06T09:49:32.869Z,8.95
2019-05-06T09:51:58.973Z,9.22
2019-05-06T09:54:32.053Z,9.51
2019-05-06T09:57:02.261Z,9.82
2019-05-06T09:59:28.720Z,9.92
2019-05-06T10:01:55.057Z,9.62
2019-05-06T10:04:21.417Z,9.35
2019-05-06T10:06:56.395Z,9.13
2019-05-06T10:09:16.456Z,8.95
2019-05-06T10:11:42.960Z,8.57
2019-05-06T10:14:09.231Z,8.31
2019-05-06T10:16:35.818Z,8.11
2019-05-06T10:19:02.602Z,8.03
2019-05-06T10:21:28.806Z,7.94
2019-05-06T10:23:55.171Z,7.81
2019-05-06T10:26:23.442Z,7.73
2019-05-06T10:29:06.662Z,7.63
2019-05-06T10:31:34.897Z,7.57
2019-05-06T10:34:13.958Z,7.53
2019-05-06T10:36:54.104Z,7.63
2019-05-06T10:39:24.004Z,7.76
2019-05-06T10:41:55.949Z,7.88
2019-05-06T10:44:32.964Z,8.06
2019-05-06T10:46:59.428Z,8.34
2019-05-06T10:49:25.555Z,8.61
2019-05-06T10:51:53.718Z,8.70
2019-05-06T10:54:19.947Z,8.86
2019-05-06T10:56:53.855Z,9.08
2019-05-06T10:59:19.045Z,9.55
2019-05-06T11:01:47.304Z,9.47
2019-05-06T11:04:13.422Z,9.67
2019-05-06T11:06:39.647Z,9.59
2019-05-06T11:09:08.460Z,9.62
2019-05-06T11:11:38.521Z,9.92
2019-05-06T11:14:04.128Z,10.28
2019-05-06T11:16:30.294Z,10.84
2019-05-06T11:18:56.548Z,11.54
2019-05-06T11:21:22.878Z,12.67
2019-05-06T11:23:49.253Z,13.27
2019-05-06T11:26:15.794Z,13.90
2019-05-06T11:28:43.925Z,13.31
2019-05-06T11:31:22.978Z,12.07
2019-05-06T11:33:57.986Z,11.03
2019-05-06T11:36:26.075Z,10.21
2019-05-06T11:38:52.366Z,9.78
2019-05-06T11:41:18.622Z,9.53
2019-05-06T11:43:44.801Z,9.34
2019-05-06T11:46:12.288Z,9.17
2019-05-06T11:48:38.571Z,9.07
2019-05-06T11:51:06.880Z,9.07
2019-05-06T11:53:33.987Z,9.15
2019-05-06T11:56:02.099Z,9.33
2019-05-06T11:58:45.577Z,9.63
2019-05-06T12:01:32.920Z,9.93
2019-05-06T12:03:59.358Z,10.95
2019-05-06T12:06:25.654Z,11.87
2019-05-06T12:08:52.473Z,14.13
2019-05-06T12:11:18.927Z,15.30
2019-05-06T12:13:45.061Z,18.55
2019-05-06T12:16:14.204Z,19.41
2019-05-06T12:18:39.550Z,18.14
2019-05-06T12:21:11.213Z,16.04
2019-05-06T12:23:35.423Z,14.59
2019-05-06T12:26:02.627Z,14.99
2019-05-06T12:28:28.894Z,15.47
2019-05-06T12:30:55.274Z,14.80
2019-05-06T12:33:29.688Z,14.36
2019-05-06T12:35:57.966Z,13.83
2019-05-06T12:38:35.229Z,13.24
2019-05-06T12:41:10.138Z,12.62
2019-05-06T12:43:38.345Z,12.25
2019-05-06T12:46:06.378Z,12.03
2019-05-06T12:48:43.986Z,11.70
2019-05-06T12:51:10.594Z,11.45
2019-05-06T12:53:36.900Z,11.48
2019-05-06T12:56:03.383Z,11.67
2019-05-06T12:58:29.667Z,11.75
2019-05-06T13:00:55.985Z,12.01
2019-05-06T13:03:23.420Z,12.10
2019-05-06T13:05:52.072Z,12.08
2019-05-06T13:08:20.837Z,12.32
2019-05-06T13:10:46.853Z,12.70
2019-05-06T13:13:13.309Z,12.24
2019-05-06T13:15:39.901Z,12.00
2019-05-06T13:18:07.318Z,12.15
2019-05-06T13:20:35.759Z,12.08
2019-05-06T13:23:09.955Z,11.72
2019-05-06T13:25:35.322Z,11.59
2019-05-06T13:28:01.579Z,11.37
2019-05-06T13:30:28.143Z,11.36
2019-05-06T13:33:04.054Z,11.29
2019-05-06T13:35:32.585Z,11.11
2019-05-06T13:37:58.409Z,10.96
2019-05-06T13:40:27.124Z,10.90
2019-05-06T13:42:55.014Z,11.03
2019-05-06T13:45:22.018Z,10.97
2019-05-06T13:47:52.395Z,10.84
2019-05-06T13:50:29.699Z,10.59
2019-05-06T13:53:08.222Z,10.30
2019-05-06T13:55:26.101Z,9.97
2019-05-06T13:57:52.473Z,9.85
2019-05-06T14:00:22.491Z,9.82
2019-05-06T14:02:53.664Z,9.90
2019-05-06T14:05:20.051Z,9.89
2019-05-06T14:07:46.302Z,9.78
2019-05-06T14:10:13.299Z,9.63
2019-05-06T14:12:42.335Z,9.60
2019-05-06T14:15:08.413Z,9.73
2019-05-06T14:17:34.511Z,9.94
2019-05-06T14:20:02.599Z,10.34
2019-05-06T14:22:29.056Z,10.84
2019-05-06T14:24:57.216Z,11.53
2019-05-06T14:27:23.387Z,13.96
2019-05-06T14:29:53.316Z,14.45
2019-05-06T14:32:19.699Z,14.68
2019-05-06T14:34:45.924Z,14.69
2019-05-06T14:37:12.131Z,13.83
2019-05-06T14:39:50.215Z,14.36
2019-05-06T14:42:08.558Z,13.76
2019-05-06T14:44:34.742Z,13.36
2019-05-06T14:47:17.746Z,13.65
2019-05-06T14:49:43.932Z,13.23
2019-05-06T14:52:12.898Z,12.78
2019-05-06T14:54:49.650Z,12.85
2019-05-06T14:57:17.261Z,12.51
2019-05-06T14:59:43.479Z,12.22
2019-05-06T15:02:09.706Z,11.96
2019-05-06T15:04:36.180Z,11.63
2019-05-06T15:07:02.422Z,11.16
2019-05-06T15:09:28.743Z,10.84
2019-05-06T15:11:54.962Z,10.72
2019-05-06T15:14:22.673Z,10.52
2019-05-06T15:16:49.565Z,10.31
2019-05-06T15:19:15.856Z,10.13
2019-05-06T15:21:42.794Z,10.00
2019-05-06T15:24:09.333Z,9.88
2019-05-06T15:26:35.498Z,9.73
2019-05-06T15:29:03.363Z,9.76
2019-05-06T15:31:32.582Z,9.78
2019-05-06T15:34:17.316Z,9.87
2019-05-06T15:37:03.783Z,9.84
2019-05-06T15:39:32.210Z,9.98
2019-05-06T15:41:58.085Z,10.24
2019-05-06T15:44:24.311Z,10.48
2019-05-06T15:46:52.613Z,10.44
2019-05-06T15:49:18.570Z,10.43
2019-05-06T15:51:44.727Z,10.36
2019-05-06T15:54:10.912Z,10.34
2019-05-06T15:56:37.144Z,10.31
2019-05-06T15:59:03.916Z,10.31
2019-05-06T16:01:33.231Z,10.33
2019-05-06T16:03:58.237Z,10.31
2019-05-06T16:06:24.491Z,10.40
2019-05-06T16:08:52.634Z,10.43
2019-05-06T16:11:18.948Z,10.32
2019-05-06T16:13:45.258Z,10.10
2019-05-06T16:16:11.844Z,10.04
2019-05-06T16:18:38.131Z,9.97
2019-05-06T16:21:04.619Z,9.90
2019-05-06T16:23:33.219Z,9.85
2019-05-06T16:26:02.830Z,9.72
2019-05-06T16:28:28.844Z,9.58
2019-05-06T16:30:56.241Z,9.50
2019-05-06T16:33:22.350Z,9.42
2019-05-06T16:35:49.112Z,9.33
2019-05-06T16:38:15.713Z,9.32
2019-05-06T16:40:45.046Z,9.28
2019-05-06T16:43:10.020Z,9.20
2019-05-06T16:45:36.465Z,9.13
2019-05-06T16:48:03.688Z,9.10
2019-05-06T16:50:33.000Z,8.96
2019-05-06T16:52:59.304Z,8.90
2019-05-06T16:55:27.708Z,8.93
2019-05-06T16:57:55.838Z,8.89
2019-05-06T17:00:24.829Z,8.90
2019-05-06T17:02:57.797Z,8.88
2019-05-06T17:05:35.361Z,8.88
2019-05-06T17:08:02.940Z,8.81
2019-05-06T17:10:29.841Z,8.71
2019-05-06T17:12:56.155Z,8.65
2019-05-06T17:15:23.046Z,8.58
2019-05-06T17:17:49.466Z,8.51
2019-05-06T17:20:15.886Z,8.47
2019-05-06T17:22:42.404Z,8.44
2019-05-06T17:25:09.036Z,8.35
2019-05-06T17:27:37.328Z,8.33
2019-05-06T17:30:25.293Z,8.31
2019-05-06T17:32:59.467Z,8.26
2019-05-06T17:35:25.691Z,8.19
2019-05-06T17:37:56.728Z,8.18
2019-05-06T17:40:23.159Z,8.13
2019-05-06T17:42:53.108Z,8.08
2019-05-06T17:45:37.640Z,8.03
2019-05-06T17:48:05.813Z,7.94
2019-05-06T17:50:32.647Z,7.88
2019-05-06T17:52:59.528Z,7.83
2019-05-06T17:55:25.764Z,7.76
2019-05-06T17:57:52.929Z,7.74
2019-05-06T18:00:19.888Z,7.67
2019-05-06T18:02:46.445Z,7.61
2019-05-06T18:05:12.664Z,7.56
2019-05-06T18:07:39.092Z,7.50
2019-05-06T18:10:05.406Z,7.43
2019-05-06T18:12:33.239Z,7.38
2019-05-06T18:14:59.631Z,7.32
2019-05-06T18:17:25.874Z,7.27
2019-05-06T18:19:52.166Z,7.23
2019-05-06T18:22:18.572Z,7.20
2019-05-06T18:24:44.852Z,7.18
2019-05-06T18:27:13.112Z,7.14
2019-05-06T18:29:39.180Z,7.09
2019-05-06T18:32:05.403Z,7.06
2019-05-06T18:34:32.566Z,6.97
2019-05-06T18:37:02.948Z,6.89
2019-05-06T18:39:28.681Z,6.79
2019-05-06T18:41:54.910Z,6.71
2019-05-06T18:44:22.762Z,6.65
2019-05-06T18:46:49.157Z,6.59
2019-05-06T18:49:15.325Z,6.52
2019-05-06T18:51:42.795Z,6.46
2019-05-06T18:54:09.245Z,6.43
2019-05-06T18:56:35.652Z,6.33
2019-05-06T18:59:02.836Z,6.24
2019-05-06T19:01:29.340Z,6.13
2019-05-06T19:04:03.763Z,6.05
2019-05-06T19:06:30.190Z,6.01
2019-05-06T19:09:10.483Z,5.97
2019-05-06T19:11:36.790Z,5.95
2019-05-06T19:14:03.130Z,5.93
2019-05-06T19:16:29.303Z,5.92
2019-05-06T19:18:55.499Z,5.92
2019-05-06T19:21:24.272Z,5.88
2019-05-06T19:23:51.953Z,5.92
2019-05-06T19:26:17.770Z,5.91
2019-05-06T19:28:44.140Z,5.94
2019-05-06T19:31:12.220Z,5.93
2019-05-06T19:33:38.406Z,5.87
2019-05-06T19:36:04.593Z,5.85
2019-05-06T19:38:33.514Z,5.88
2019-05-06T19:40:59.215Z,5.88
2019-05-06T19:43:25.497Z,5.87
2019-05-06T19:45:53.052Z,5.88
2019-05-06T19:48:19.563Z,5.92
2019-05-06T19:50:45.965Z,5.92
2019-05-06T19:53:12.396Z,5.95
2019-05-06T19:55:38.943Z,5.96
2019-05-06T19:58:05.092Z,5.93
2019-05-06T20:00:32.586Z,5.87
2019-05-06T20:02:59.104Z,5.85
2019-05-06T20:05:42.308Z,5.84
2019-05-06T20:08:16.179Z,5.80
2019-05-06T20:11:02.168Z,5.79
2019-05-06T20:13:28.722Z,5.77
2019-05-06T20:15:55.049Z,5.77
2019-05-06T20:18:21.224Z,5.74
2019-05-06T20:20:47.624Z,5.75
2019-05-06T20:23:14.002Z,5.74
2019-05-06T20:25:42.577Z,5.76
2019-05-06T20:28:08.250Z,5.77
2019-05-06T20:30:34.528Z,5.72
2019-05-06T20:33:00.700Z,5.72
2019-05-06T20:35:26.879Z,5.68
2019-05-06T20:37:53.548Z,5.62
2019-05-06T20:40:23.024Z,5.61
2019-05-06T20:42:49.383Z,5.63
2019-05-06T20:45:16.456Z,5.65
2019-05-06T20:47:43.010Z,5.67
2019-05-06T20:50:10.037Z,5.67
2019-05-06T20:52:36.545Z,5.68
2019-05-06T20:55:12.499Z,5.64
2019-05-06T20:57:32.904Z,5.61
2019-05-06T20:59:59.237Z,5.56
2019-05-06T21:02:25.966Z,5.56
2019-05-06T21:04:52.507Z,5.55
2019-05-06T21:07:18.632Z,5.53
2019-05-06T21:09:44.882Z,5.49
2019-05-06T21:12:11.085Z,5.40
2019-05-06T21:14:38.431Z,5.27
2019-05-06T21:17:04.640Z,5.16
2019-05-06T21:19:32.943Z,5.07
2019-05-06T21:21:58.933Z,4.99
2019-05-06T21:24:25.313Z,4.94
2019-05-06T21:26:53.161Z,4.86
2019-05-06T21:29:19.548Z,4.80
2019-05-06T21:31:45.716Z,4.76
2019-05-06T21:34:12.893Z,4.67
2019-05-06T21:36:39.141Z,4.60
2019-05-06T21:39:06.210Z,4.52
2019-05-06T21:41:32.793Z,4.46
2019-05-06T21:43:59.178Z,4.41
2019-05-06T21:46:25.462Z,4.35
2019-05-06T21:48:52.956Z,4.31
2019-05-06T21:51:19.392Z,4.26
2019-05-06T21:53:45.659Z,4.20
2019-05-06T21:56:13.097Z,4.17
2019-05-06T21:58:39.448Z,4.13
2019-05-06T22:01:06.981Z,4.10
2019-05-06T22:03:35.123Z,4.06
2019-05-06T22:06:02.301Z,4.05
2019-05-06T22:08:29.894Z,4.02
2019-05-06T22:10:56.095Z,3.97
2019-05-06T22:13:22.292Z,3.91
2019-05-06T22:15:48.493Z,3.75
2019-05-06T22:18:14.683Z,3.70
2019-05-06T22:20:59.378Z,3.66
2019-05-06T22:23:29.611Z,3.65
2019-05-06T22:26:08.556Z,3.62
2019-05-06T22:28:24.610Z,3.57
2019-05-06T22:30:52.025Z,3.56
2019-05-06T22:33:18.373Z,3.52
2019-05-06T22:35:44.637Z,3.52
2019-05-06T22:38:12.352Z,3.49
2019-05-06T22:40:38.647Z,3.48
2019-05-06T22:43:04.792Z,3.46
2019-05-06T22:45:32.899Z,3.41
2019-05-06T22:47:59.053Z,3.37
2019-05-06T22:50:25.259Z,3.32
2019-05-06T22:52:52.868Z,3.28
2019-05-06T22:55:19.247Z,3.27
2019-05-06T22:57:45.467Z,3.24
2019-05-06T23:00:15.528Z,3.23
2019-05-06T23:02:46.248Z,3.22
2019-05-06T23:05:12.708Z,3.17
2019-05-06T23:07:38.939Z,3.16
2019-05-06T23:10:06.471Z,3.13
2019-05-06T23:12:32.691Z,3.09
2019-05-06T23:14:58.818Z,3.07
2019-05-06T23:17:25.050Z,3.04
2019-05-06T23:19:52.775Z,3.02
2019-05-06T23:22:19.552Z,3.00
2019-05-06T23:24:45.669Z,2.97
2019-05-06T23:27:12.660Z,2.93
2019-05-06T23:29:38.912Z,2.91
2019-05-06T23:32:05.138Z,2.88
2019-05-06T23:34:32.487Z,2.86
2019-05-06T23:37:02.992Z,2.84
2019-05-06T23:40:08.589Z,2.83
2019-05-06T23:43:12.692Z,2.83
2019-05-06T23:46:17.014Z,2.77
2019-05-06T23:49:22.295Z,2.69
2019-05-06T23:52:25.820Z,2.67
2019-05-06T23:55:29.483Z,2.64
2019-05-06T23:57:55.662Z,2.62
